createdAt,value
2016-09-09T00:00:46.477Z,0
2016-09-09T00:01:56.476Z,0
2016-09-09T00:03:06.827Z,0
2016-09-09T00:04:16.814Z,0
2016-09-09T00:05:26.812Z,0
2016-09-09T00:06:36.501Z,0
2016-09-09T00:07:46.498Z,0
2016-09-09T00:08:56.822Z,0
2016-09-09T00:10:07.118Z,0
2016-09-09T00:11:17.411Z,0
2016-09-09T00:12:27.696Z,0
2016-09-09T00:13:37.373Z,0
2016-09-09T00:14:47.355Z,0
2016-09-09T00:15:57.347Z,0
2016-09-09T00:17:07.032Z,0
2016-09-09T00:18:17.031Z,0
2016-09-09T00:19:27.349Z,0
2016-09-09T00:20:37.347Z,0
2016-09-09T00:21:47.334Z,0
2016-09-09T00:22:57.638Z,0
2016-09-09T00:24:07.933Z,0
2016-09-09T00:25:18.238Z,0
2016-09-09T00:26:28.251Z,0
2016-09-09T00:27:38.565Z,0
2016-09-09T00:28:48.569Z,0
2016-09-09T00:29:58.551Z,0
2016-09-09T00:31:08.884Z,0
2016-09-09T00:32:18.609Z,0
2016-09-09T00:33:28.911Z,0
2016-09-09T00:34:38.917Z,0
2016-09-09T00:35:49.228Z,0
2016-09-09T00:36:59.536Z,0
2016-09-09T00:38:09.839Z,0
2016-09-09T00:39:19.835Z,0
2016-09-09T00:40:28.899Z,0
2016-09-09T00:41:38.898Z,0
2016-09-09T00:42:48.895Z,0
2016-09-09T00:43:58.887Z,0
2016-09-09T00:45:08.882Z,0
2016-09-09T00:46:19.192Z,0
2016-09-09T00:47:28.874Z,0
2016-09-09T00:48:38.556Z,0
2016-09-09T00:49:48.848Z,0
2016-09-09T00:50:59.144Z,0
2016-09-09T00:52:09.444Z,0
2016-09-09T00:53:19.453Z,0
2016-09-09T00:54:29.136Z,0
2016-09-09T00:55:39.113Z,0
2016-09-09T00:56:48.793Z,0
2016-09-09T00:57:59.077Z,0
2016-09-09T00:59:08.751Z,0
2016-09-09T01:00:19.050Z,0
2016-09-09T01:01:29.372Z,0
2016-09-09T01:02:39.366Z,0
2016-09-09T01:03:49.055Z,0
2016-09-09T01:04:59.351Z,0
2016-09-09T01:06:09.346Z,0
2016-09-09T01:07:19.335Z,0
2016-09-09T01:08:29.640Z,0
2016-09-09T01:09:39.927Z,0
2016-09-09T01:10:49.605Z,0
2016-09-09T01:11:59.907Z,0
2016-09-09T01:13:10.205Z,0
2016-09-09T01:14:20.743Z,0
2016-09-09T01:15:30.741Z,0
2016-09-09T01:16:40.414Z,0
2016-09-09T01:17:50.730Z,0
2016-09-09T01:19:00.717Z,0
2016-09-09T01:20:10.709Z,0
2016-09-09T01:21:21.231Z,0
2016-09-09T01:22:30.612Z,0
2016-09-09T01:23:40.908Z,0
2016-09-09T01:24:50.890Z,0
2016-09-09T01:26:01.183Z,0
2016-09-09T01:27:10.873Z,0
2016-09-09T01:28:20.559Z,0
2016-09-09T01:29:30.557Z,0
2016-09-09T01:30:40.877Z,0
2016-09-09T01:31:51.181Z,0
2016-09-09T01:33:01.477Z,0
2016-09-09T01:34:11.818Z,0
2016-09-09T01:35:21.818Z,0
2016-09-09T01:36:31.804Z,0
2016-09-09T01:37:42.115Z,0
2016-09-09T01:38:52.402Z,0
2016-09-09T01:40:02.387Z,0
2016-09-09T01:41:12.708Z,0
2016-09-09T01:42:22.685Z,0
2016-09-09T01:43:32.087Z,0
2016-09-09T01:44:42.397Z,0
2016-09-09T01:45:52.391Z,0
2016-09-09T01:47:01.754Z,0
2016-09-09T01:48:11.737Z,0
2016-09-09T01:49:22.038Z,0
2016-09-09T01:50:32.354Z,0
2016-09-09T01:51:42.349Z,0
2016-09-09T01:52:52.030Z,0
2016-09-09T01:54:02.021Z,0
2016-09-09T01:55:12.000Z,0
2016-09-09T01:56:21.990Z,0
2016-09-09T01:57:32.291Z,0
2016-09-09T01:58:42.575Z,0
2016-09-09T01:59:51.955Z,0
2016-09-09T02:01:01.926Z,0
2016-09-09T02:02:12.215Z,0
2016-09-09T02:03:22.193Z,0
2016-09-09T02:04:31.881Z,0
2016-09-09T02:05:41.565Z,0
2016-09-09T02:06:51.853Z,0
2016-09-09T02:08:01.215Z,0
2016-09-09T02:09:11.507Z,0
2016-09-09T02:10:21.797Z,0
2016-09-09T02:11:32.096Z,0
2016-09-09T02:12:42.062Z,0
2016-09-09T02:13:52.363Z,0
2016-09-09T02:15:02.345Z,0
2016-09-09T02:16:12.318Z,0
2016-09-09T02:17:21.993Z,0
2016-09-09T02:18:31.980Z,0
2016-09-09T02:19:41.641Z,0
2016-09-09T02:20:51.926Z,0
2016-09-09T02:22:01.302Z,0
2016-09-09T02:23:11.581Z,0
2016-09-09T02:24:21.268Z,0
2016-09-09T02:25:31.538Z,0
2016-09-09T02:26:41.838Z,0
2016-09-09T02:27:52.135Z,0
2016-09-09T02:29:02.424Z,0
2016-09-09T02:30:12.724Z,0
2016-09-09T02:31:22.704Z,0
2016-09-09T02:32:32.691Z,0
2016-09-09T02:33:42.971Z,0
2016-09-09T02:34:52.981Z,0
2016-09-09T02:36:03.299Z,0
2016-09-09T02:37:13.285Z,0
2016-09-09T02:38:22.973Z,0
2016-09-09T02:39:32.965Z,0
2016-09-09T02:40:42.643Z,0
2016-09-09T02:41:52.645Z,0
2016-09-09T02:43:02.325Z,0
2016-09-09T02:44:12.314Z,0
2016-09-09T02:45:22.597Z,0
2016-09-09T02:46:32.614Z,0
2016-09-09T02:47:42.600Z,0
2016-09-09T02:48:52.296Z,0
2016-09-09T02:50:02.607Z,0
2016-09-09T02:51:12.611Z,0
2016-09-09T02:52:22.608Z,0
2016-09-09T02:53:32.908Z,0
2016-09-09T02:54:43.210Z,0
2016-09-09T02:55:53.514Z,0
2016-09-09T02:57:03.212Z,0
2016-09-09T02:58:13.551Z,0
2016-09-09T02:59:23.856Z,0
2016-09-09T03:00:33.868Z,0
2016-09-09T03:32:38.870Z,0
2016-09-09T03:33:49.146Z,0
2016-09-09T03:34:59.430Z,0
2016-09-09T03:36:09.709Z,0
2016-09-09T03:37:19.993Z,0
2016-09-09T03:38:30.312Z,0
2016-09-09T03:39:40.591Z,0
2016-09-09T03:40:50.567Z,0
2016-09-09T03:42:00.874Z,0
2016-09-09T03:43:11.163Z,0
2016-09-09T03:44:21.139Z,0
2016-09-09T03:45:31.435Z,0
2016-09-09T03:46:41.422Z,0
2016-09-09T03:47:51.723Z,0
2016-09-09T03:49:02.020Z,4
2016-09-09T03:50:12.308Z,4
2016-09-09T03:51:22.609Z,0
2016-09-09T03:52:32.913Z,0
2016-09-09T03:53:43.217Z,4
2016-09-09T03:54:53.190Z,4
2016-09-09T03:56:03.170Z,4
2016-09-09T03:57:13.462Z,4
2016-09-09T03:58:23.441Z,8
2016-09-09T03:59:33.746Z,8
2016-09-09T04:00:43.728Z,8
2016-09-09T04:01:54.005Z,8
2016-09-09T04:03:04.313Z,12
2016-09-09T04:04:14.616Z,16
2016-09-09T04:05:24.609Z,20
2016-09-09T04:06:34.907Z,20
2016-09-09T04:07:44.886Z,24
2016-09-09T04:08:55.204Z,32
2016-09-09T04:10:05.506Z,36
2016-09-09T04:11:15.811Z,44
2016-09-09T04:12:26.119Z,48
2016-09-09T04:13:36.423Z,60
2016-09-09T04:14:46.417Z,68
2016-09-09T04:15:56.399Z,80
2016-09-09T04:17:06.394Z,92
2016-09-09T04:18:16.719Z,104
2016-09-09T04:19:26.390Z,120
2016-09-09T04:20:36.700Z,136
2016-09-09T04:21:47.006Z,152
2016-09-09T04:22:57.004Z,168
2016-09-09T04:24:06.983Z,192
2016-09-09T04:25:16.986Z,208
2016-09-09T04:26:26.981Z,232
2016-09-09T04:27:37.283Z,256
2016-09-09T04:28:47.572Z,280
2016-09-09T04:29:57.890Z,312
2016-09-09T04:31:08.193Z,340
2016-09-09T04:32:18.499Z,368
2016-09-09T04:33:28.803Z,400
2016-09-09T04:34:39.106Z,436
2016-09-09T04:35:49.405Z,472
2016-09-09T04:36:59.929Z,508
2016-09-09T04:38:10.223Z,568
2016-09-09T04:39:20.511Z,652
2016-09-09T04:40:30.812Z,736
2016-09-09T04:41:40.793Z,844
2016-09-09T04:42:51.085Z,996
2016-09-09T04:44:01.380Z,1136
2016-09-09T04:45:11.374Z,1284
2016-09-09T04:46:21.703Z,1432
2016-09-09T04:47:31.683Z,1596
2016-09-09T04:48:42.016Z,1792
2016-09-09T04:49:52.318Z,1980
2016-09-09T04:51:02.621Z,2144
2016-09-09T04:52:12.597Z,2328
2016-09-09T04:53:22.882Z,2476
2016-09-09T04:54:32.862Z,2684
2016-09-09T04:55:43.234Z,2896
2016-09-09T04:56:53.542Z,3048
2016-09-09T04:58:03.859Z,2812
2016-09-09T04:59:14.145Z,3236
2016-09-09T05:00:24.444Z,3552
2016-09-09T05:01:34.787Z,3740
2016-09-09T05:02:45.072Z,3948
2016-09-09T05:03:55.374Z,4148
2016-09-09T05:05:05.680Z,4292
2016-09-09T05:06:15.367Z,4544
2016-09-09T05:07:25.675Z,4256
2016-09-09T05:08:35.977Z,3472
2016-09-09T05:09:46.279Z,2648
2016-09-09T05:10:55.958Z,2432
2016-09-09T05:12:06.267Z,2048
2016-09-09T05:13:16.270Z,2028
2016-09-09T05:14:26.563Z,2060
2016-09-09T05:15:36.865Z,2092
2016-09-09T05:16:47.173Z,2128
2016-09-09T05:17:57.177Z,2164
2016-09-09T05:19:07.471Z,2204
2016-09-09T05:20:17.774Z,2240
2016-09-09T05:21:28.070Z,2272
2016-09-09T05:22:38.058Z,2304
2016-09-09T05:23:48.360Z,2348
2016-09-09T05:24:58.627Z,2596
2016-09-09T05:26:08.920Z,3208
2016-09-09T05:27:18.912Z,3548
2016-09-09T05:28:28.277Z,3664
2016-09-09T05:29:38.582Z,3408
2016-09-09T05:30:48.898Z,2760
2016-09-09T05:31:59.199Z,2592
2016-09-09T05:33:09.499Z,2616
2016-09-09T05:34:19.794Z,2644
2016-09-09T05:35:30.114Z,2772
2016-09-09T05:36:40.438Z,3432
2016-09-09T05:37:50.445Z,3744
2016-09-09T05:39:00.470Z,3384
2016-09-09T05:40:10.780Z,2968
2016-09-09T05:41:20.806Z,2888
2016-09-09T05:42:31.109Z,3344
2016-09-09T05:43:41.104Z,4168
2016-09-09T05:44:51.381Z,3804
2016-09-09T05:46:01.699Z,3196
2016-09-09T05:47:12.063Z,3012
2016-09-09T05:48:22.361Z,3044
2016-09-09T05:49:32.037Z,3336
2016-09-09T05:50:42.036Z,4184
2016-09-09T05:51:52.362Z,4808
2016-09-09T05:53:02.663Z,4664
2016-09-09T05:54:12.950Z,3960
2016-09-09T05:55:23.249Z,3372
2016-09-09T05:56:33.267Z,3252
2016-09-09T05:57:43.284Z,3504
2016-09-09T05:58:53.570Z,3940
2016-09-09T06:00:03.862Z,3720
2016-09-09T06:01:14.197Z,3264
2016-09-09T06:02:24.479Z,3248
2016-09-09T06:03:34.779Z,3268
2016-09-09T06:04:45.069Z,3280
2016-09-09T06:05:55.063Z,3312
2016-09-09T06:07:05.065Z,3340
2016-09-09T06:08:15.356Z,3364
2016-09-09T06:09:25.642Z,3384
2016-09-09T06:10:35.643Z,3404
2016-09-09T06:11:45.973Z,3432
2016-09-09T06:12:56.277Z,3456
2016-09-09T06:14:06.263Z,3484
2016-09-09T06:15:16.578Z,3516
2016-09-09T06:16:26.585Z,3552
2016-09-09T06:17:36.862Z,3576
2016-09-09T06:18:46.846Z,3600
2016-09-09T06:19:57.138Z,3632
2016-09-09T06:21:06.838Z,3664
2016-09-09T06:22:17.127Z,3684
2016-09-09T06:23:27.418Z,3712
2016-09-09T06:24:37.728Z,3744
2016-09-09T06:25:47.732Z,3764
2016-09-09T06:26:57.734Z,3788
2016-09-09T06:28:08.051Z,3820
2016-09-09T06:29:18.357Z,3852
2016-09-09T06:30:28.669Z,3876
2016-09-09T06:31:38.670Z,3896
2016-09-09T06:32:48.978Z,3924
2016-09-09T06:33:59.267Z,3952
2016-09-09T06:35:09.575Z,3984
2016-09-09T06:36:19.868Z,4016
2016-09-09T06:37:29.875Z,4048
2016-09-09T06:38:40.178Z,4080
2016-09-09T06:39:50.498Z,4104
2016-09-09T06:41:00.495Z,4128
2016-09-09T06:42:10.796Z,4156
2016-09-09T06:43:21.112Z,4180
2016-09-09T06:44:31.417Z,4200
2016-09-09T06:45:41.707Z,4212
2016-09-09T06:46:51.702Z,4244
2016-09-09T06:48:01.999Z,4272
2016-09-09T06:49:11.988Z,4300
2016-09-09T06:50:21.982Z,4316
2016-09-09T06:51:31.988Z,4344
2016-09-09T06:52:42.299Z,4372
2016-09-09T06:53:52.828Z,4404
2016-09-09T06:55:03.123Z,4424
2016-09-09T06:56:13.106Z,4448
2016-09-09T06:57:23.407Z,4472
2016-09-09T06:58:33.413Z,4496
2016-09-09T06:59:43.418Z,4524
2016-09-09T07:00:53.717Z,4540
2016-09-09T07:02:03.716Z,4568
2016-09-09T07:03:13.736Z,4592
2016-09-09T07:04:23.705Z,4616
2016-09-09T07:05:33.710Z,4636
2016-09-09T07:06:43.698Z,4660
2016-09-09T07:07:54.037Z,4684
2016-09-09T07:09:04.041Z,4700
2016-09-09T07:10:14.344Z,4712
2016-09-09T07:11:24.329Z,4744
2016-09-09T07:12:34.629Z,4764
2016-09-09T07:13:44.637Z,4784
2016-09-09T07:14:54.937Z,4808
2016-09-09T07:16:04.619Z,4824
2016-09-09T07:17:14.926Z,4824
2016-09-09T07:18:24.905Z,4840
2016-09-09T07:19:35.220Z,4848
2016-09-09T07:20:45.233Z,4904
2016-09-09T07:21:55.246Z,4940
2016-09-09T07:23:05.546Z,4960
2016-09-09T07:24:15.865Z,4976
2016-09-09T07:25:26.178Z,5020
2016-09-09T07:26:36.486Z,5052
2016-09-09T07:27:46.487Z,5080
2016-09-09T07:28:56.782Z,5120
2016-09-09T07:30:06.468Z,5136
2016-09-09T07:31:16.753Z,5156
2016-09-09T07:32:27.299Z,5168
2016-09-09T07:33:37.592Z,5224
2016-09-09T07:34:47.563Z,5244
2016-09-09T07:35:57.570Z,5260
2016-09-09T07:37:07.892Z,5280
2016-09-09T07:38:17.593Z,5328
2016-09-09T07:39:27.921Z,5332
2016-09-09T07:40:38.235Z,5348
2016-09-09T07:41:48.244Z,5360
2016-09-09T07:42:58.254Z,5384
2016-09-09T07:44:08.557Z,5428
2016-09-09T07:45:18.877Z,5448
2016-09-09T07:46:29.195Z,5464
2016-09-09T07:47:39.512Z,5508
2016-09-09T07:48:49.819Z,5528
2016-09-09T07:50:00.130Z,5544
2016-09-09T07:51:10.121Z,5564
2016-09-09T07:52:20.441Z,5604
2016-09-09T07:53:30.472Z,5620
2016-09-09T07:54:40.771Z,5644
2016-09-09T07:55:51.080Z,5700
2016-09-09T07:57:01.389Z,5720
2016-09-09T07:58:11.690Z,5744
2016-09-09T07:59:21.995Z,5800
2016-09-09T08:00:32.022Z,5860
2016-09-09T08:01:42.035Z,5828
2016-09-09T08:02:52.381Z,5856
2016-09-09T08:04:02.716Z,5888
2016-09-09T08:05:13.081Z,5920
2016-09-09T08:06:23.100Z,5924
2016-09-09T08:07:33.461Z,5924
2016-09-09T08:08:43.840Z,5988
2016-09-09T08:09:54.119Z,6032
2016-09-09T08:11:04.459Z,6044
2016-09-09T08:12:14.796Z,6064
2016-09-09T08:13:25.138Z,6080
2016-09-09T08:14:35.481Z,6124
2016-09-09T08:15:45.786Z,6156
2016-09-09T08:16:55.815Z,6184
2016-09-09T08:18:05.821Z,6188
2016-09-09T08:19:16.165Z,6176
2016-09-09T08:20:26.486Z,6160
2016-09-09T08:21:37.047Z,6200
2016-09-09T08:22:47.373Z,6232
2016-09-09T08:23:57.707Z,6256
2016-09-09T08:25:07.728Z,6252
2016-09-09T08:26:18.070Z,6292
2016-09-09T08:27:28.399Z,6312
2016-09-09T08:28:38.737Z,6364
2016-09-09T08:29:48.756Z,6408
2016-09-09T08:30:59.098Z,6420
2016-09-09T08:32:09.450Z,6448
2016-09-09T08:33:19.458Z,6492
2016-09-09T08:34:29.790Z,6492
2016-09-09T08:35:40.103Z,6488
2016-09-09T08:36:50.155Z,6484
2016-09-09T08:38:00.488Z,6560
2016-09-09T08:39:10.817Z,6596
2016-09-09T08:40:21.140Z,6612
2016-09-09T08:41:30.829Z,6620
2016-09-09T08:42:41.173Z,6632
2016-09-09T08:43:51.193Z,6660
2016-09-09T08:45:01.550Z,6716
2016-09-09T08:46:11.876Z,6712
2016-09-09T08:47:22.190Z,6728
2016-09-09T08:48:32.537Z,6748
2016-09-09T08:49:42.858Z,6732
2016-09-09T08:50:53.156Z,6784
2016-09-09T08:52:03.467Z,6804
2016-09-09T08:53:13.471Z,6824
2016-09-09T08:54:23.814Z,6840
2016-09-09T08:55:33.815Z,6896
2016-09-09T08:56:43.829Z,6896
2016-09-09T08:57:54.135Z,6920
2016-09-09T08:59:04.538Z,6920
2016-09-09T09:00:14.845Z,6948
2016-09-09T09:01:25.186Z,6960
2016-09-09T09:02:35.497Z,6976
2016-09-09T09:03:45.822Z,6992
2016-09-09T09:04:56.180Z,7004
2016-09-09T09:06:06.177Z,7024
2016-09-09T09:07:15.871Z,7052
2016-09-09T09:08:26.178Z,7100
2016-09-09T09:09:36.169Z,7100
2016-09-09T09:10:46.476Z,7112
2016-09-09T09:11:56.460Z,7128
2016-09-09T09:13:06.765Z,7168
2016-09-09T09:14:16.760Z,7196
2016-09-09T09:15:27.078Z,7212
2016-09-09T09:16:37.398Z,7256
2016-09-09T09:17:47.696Z,7276
2016-09-09T09:18:57.697Z,7280
2016-09-09T09:20:07.703Z,7320
2016-09-09T09:21:18.002Z,7352
2016-09-09T09:22:28.306Z,7372
2016-09-09T09:23:38.635Z,7364
2016-09-09T09:24:48.656Z,7380
2016-09-09T09:25:58.974Z,7404
2016-09-09T09:27:09.281Z,7436
2016-09-09T09:28:19.585Z,7468
2016-09-09T09:29:29.912Z,7492
2016-09-09T09:30:40.219Z,7496
2016-09-09T09:31:50.530Z,7520
2016-09-09T09:33:00.836Z,7568
2016-09-09T09:34:11.129Z,7584
2016-09-09T09:35:21.131Z,7628
2016-09-09T09:36:31.116Z,7628
2016-09-09T09:37:41.430Z,7620
2016-09-09T09:38:51.733Z,7668
2016-09-09T09:40:02.044Z,7676
2016-09-09T09:41:12.358Z,7692
2016-09-09T09:42:22.377Z,7696
2016-09-09T09:43:32.373Z,7704
2016-09-09T09:44:42.365Z,7712
2016-09-09T09:45:52.358Z,7708
2016-09-09T09:47:02.039Z,7708
2016-09-09T09:48:12.048Z,7760
2016-09-09T09:49:22.362Z,7784
2016-09-09T09:50:32.361Z,7764
2016-09-09T09:51:42.665Z,7824
2016-09-09T09:52:52.692Z,7828
2016-09-09T09:54:03.002Z,7852
2016-09-09T09:55:13.289Z,7864
2016-09-09T09:56:23.593Z,7880
2016-09-09T09:57:34.012Z,7780
2016-09-09T09:58:44.333Z,7784
2016-09-09T09:59:54.673Z,7792
2016-09-09T10:01:04.992Z,7808
2016-09-09T10:02:15.303Z,7860
2016-09-09T10:03:25.604Z,7852
2016-09-09T10:04:35.917Z,7836
2016-09-09T10:05:46.228Z,7868
2016-09-09T10:06:56.541Z,7876
2016-09-09T10:08:06.853Z,7884
2016-09-09T10:09:17.187Z,7880
2016-09-09T10:10:27.530Z,7896
2016-09-09T10:11:37.870Z,7940
2016-09-09T10:12:48.193Z,7932
2016-09-09T10:13:58.488Z,7932
2016-09-09T10:15:08.801Z,7924
2016-09-09T10:16:18.803Z,7936
2016-09-09T10:17:29.127Z,7952
2016-09-09T10:18:39.445Z,7976
2016-09-09T10:19:49.480Z,7956
2016-09-09T10:20:59.794Z,7980
2016-09-09T10:22:10.336Z,7996
2016-09-09T10:23:20.649Z,7996
2016-09-09T10:24:30.958Z,8028
2016-09-09T10:25:40.964Z,7984
2016-09-09T10:26:50.956Z,8040
2016-09-09T10:28:00.642Z,8060
2016-09-09T10:29:10.973Z,8068
2016-09-09T10:30:21.269Z,8068
2016-09-09T10:31:31.574Z,8068
2016-09-09T10:32:41.882Z,8088
2016-09-09T10:33:52.219Z,8104
2016-09-09T10:35:02.535Z,8112
2016-09-09T10:36:12.544Z,8128
2016-09-09T10:37:22.535Z,8080
2016-09-09T10:38:32.535Z,8088
2016-09-09T10:39:42.542Z,8112
2016-09-09T10:40:52.846Z,8256
2016-09-09T10:42:03.164Z,8284
2016-09-09T10:43:13.482Z,8304
2016-09-09T10:44:23.783Z,8312
2016-09-09T10:45:34.107Z,8276
2016-09-09T10:46:44.420Z,8272
2016-09-09T10:47:54.420Z,8284
2016-09-09T10:49:04.762Z,8260
2016-09-09T10:50:14.749Z,8260
2016-09-09T10:51:25.073Z,8264
2016-09-09T10:52:35.371Z,8284
2016-09-09T10:53:45.068Z,8296
2016-09-09T10:54:55.388Z,8312
2016-09-09T10:56:05.389Z,8352
2016-09-09T10:57:15.704Z,8356
2016-09-09T10:58:26.026Z,8392
2016-09-09T10:59:36.019Z,8416
2016-09-09T11:00:46.033Z,8392
2016-09-09T11:01:56.035Z,8412
2016-09-09T11:03:06.034Z,8400
2016-09-09T11:04:15.420Z,8440
2016-09-09T11:05:25.427Z,8460
2016-09-09T11:06:35.438Z,8448
2016-09-09T11:07:45.764Z,8440
2016-09-09T11:08:56.086Z,8444
2016-09-09T11:10:06.405Z,8460
2016-09-09T11:11:16.695Z,8476
2016-09-09T11:12:26.716Z,8468
2016-09-09T11:13:37.036Z,8468
2016-09-09T11:14:47.345Z,8456
2016-09-09T11:15:57.042Z,8464
2016-09-09T11:17:07.346Z,8496
2016-09-09T11:18:17.328Z,8532
2016-09-09T11:19:27.630Z,8540
2016-09-09T11:20:37.948Z,8512
2016-09-09T11:21:48.317Z,8528
2016-09-09T11:22:58.642Z,8532
2016-09-09T11:24:08.649Z,8496
2016-09-09T11:25:18.965Z,8464
2016-09-09T11:26:29.301Z,8480
2016-09-09T11:27:39.617Z,8468
2016-09-09T11:28:49.925Z,8456
2016-09-09T11:30:00.221Z,8472
2016-09-09T11:31:10.548Z,8528
2016-09-09T11:32:20.847Z,8520
2016-09-09T11:33:31.193Z,8504
2016-09-09T11:34:41.520Z,8560
2016-09-09T11:35:51.839Z,8568
2016-09-09T11:37:02.156Z,8588
2016-09-09T11:38:12.477Z,8628
2016-09-09T11:39:22.790Z,8652
2016-09-09T11:40:32.792Z,8640
2016-09-09T11:41:42.810Z,8644
2016-09-09T11:42:52.824Z,8664
2016-09-09T11:44:02.840Z,8660
2016-09-09T11:45:12.863Z,8628
2016-09-09T11:46:22.877Z,8648
2016-09-09T11:47:32.885Z,8668
2016-09-09T11:48:43.216Z,8664
2016-09-09T11:49:53.170Z,8684
2016-09-09T11:51:03.188Z,8776
2016-09-09T11:52:13.206Z,8840
2016-09-09T11:53:23.005Z,8756
2016-09-09T11:54:33.311Z,8812
2016-09-09T11:55:43.020Z,8876
2016-09-09T11:56:53.322Z,8968
2016-09-09T11:58:03.048Z,9004
2016-09-09T11:59:12.760Z,8992
2016-09-09T12:00:22.441Z,8952
2016-09-09T12:01:32.807Z,9012
2016-09-09T12:02:43.064Z,9056
2016-09-09T12:03:53.379Z,9104
2016-09-09T12:05:03.375Z,9076
2016-09-09T12:06:13.383Z,9072
2016-09-09T12:07:23.385Z,9124
2016-09-09T12:08:33.379Z,9176
2016-09-09T12:09:43.376Z,9144
2016-09-09T12:10:53.396Z,9176
2016-09-09T12:12:03.696Z,9144
2016-09-09T12:13:14.012Z,9088
2016-09-09T12:14:23.721Z,9032
2016-09-09T12:15:34.064Z,9040
2016-09-09T12:16:44.062Z,9112
2016-09-09T12:17:54.385Z,9200
2016-09-09T12:19:04.099Z,9180
2016-09-09T12:20:14.434Z,9232
2016-09-09T12:21:24.427Z,9200
2016-09-09T12:22:33.809Z,9200
2016-09-09T12:23:43.831Z,9176
2016-09-09T12:24:53.438Z,9152
2016-09-09T12:26:03.745Z,9120
2016-09-09T12:27:13.444Z,9156
2016-09-09T12:28:23.764Z,9084
2016-09-09T12:29:33.485Z,9044
2016-09-09T12:30:43.789Z,8964
2016-09-09T12:31:53.479Z,8932
2016-09-09T12:33:03.500Z,8880
2016-09-09T12:34:13.482Z,8848
2016-09-09T12:35:23.180Z,8808
2016-09-09T12:36:33.195Z,8784
2016-09-09T12:37:43.498Z,8740
2016-09-09T12:38:53.514Z,8648
2016-09-09T12:40:03.515Z,8644
2016-09-09T12:41:13.829Z,8572
2016-09-09T12:42:24.161Z,8516
2016-09-09T12:43:33.856Z,8364
2016-09-09T12:44:43.550Z,8412
2016-09-09T12:45:53.549Z,8316
2016-09-09T12:47:03.253Z,8320
2016-09-09T12:48:12.665Z,8268
2016-09-09T12:49:22.666Z,8268
2016-09-09T12:50:32.966Z,8220
2016-09-09T12:51:42.968Z,8196
2016-09-09T12:52:53.284Z,8160
2016-09-09T12:54:03.609Z,8180
2016-09-09T12:55:13.919Z,8128
2016-09-09T12:56:23.911Z,8132
2016-09-09T12:57:33.896Z,8072
2016-09-09T12:58:43.926Z,8028
2016-09-09T12:59:54.278Z,7992
2016-09-09T13:01:03.974Z,7988
2016-09-09T13:02:13.675Z,7944
2016-09-09T13:03:23.384Z,7944
2016-09-09T13:04:33.072Z,7952
2016-09-09T13:05:43.059Z,7948
2016-09-09T13:06:52.125Z,7884
2016-09-09T13:08:02.448Z,7856
2016-09-09T13:09:12.156Z,7896
2016-09-09T13:10:22.153Z,7924
2016-09-09T13:11:32.480Z,7924
2016-09-09T13:12:42.483Z,7968
2016-09-09T13:13:52.784Z,7964
2016-09-09T13:15:03.106Z,7932
2016-09-09T13:16:13.111Z,7996
2016-09-09T13:17:23.434Z,7964
2016-09-09T13:18:33.433Z,7992
2016-09-09T13:19:43.451Z,8024
2016-09-09T13:20:53.773Z,7984
2016-09-09T13:22:04.131Z,7908
2016-09-09T13:23:14.442Z,7904
2016-09-09T13:24:24.753Z,7956
2016-09-09T13:25:34.469Z,7904
2016-09-09T13:26:44.786Z,7836
2016-09-09T13:27:54.819Z,7796
2016-09-09T13:29:05.135Z,7756
2016-09-09T13:30:15.126Z,7600
2016-09-09T13:31:25.427Z,7684
2016-09-09T13:32:35.754Z,7616
2016-09-09T13:33:46.076Z,7620
2016-09-09T13:34:56.394Z,7640
2016-09-09T13:36:06.709Z,7628
2016-09-09T13:37:17.016Z,7592
2016-09-09T13:38:27.603Z,7560
2016-09-09T13:39:37.912Z,7456
2016-09-09T13:40:48.239Z,7448
2016-09-09T13:41:58.565Z,7404
2016-09-09T13:43:08.886Z,7428
2016-09-09T13:44:18.906Z,7416
2016-09-09T13:45:29.217Z,7408
2016-09-09T13:46:39.560Z,7364
2016-09-09T13:47:49.556Z,7364
2016-09-09T13:48:59.235Z,7296
2016-09-09T13:50:09.235Z,7280
2016-09-09T13:51:19.549Z,7220
2016-09-09T13:52:29.860Z,7212
2016-09-09T13:53:39.879Z,7172
2016-09-09T13:54:49.883Z,7116
2016-09-09T13:56:00.230Z,7116
2016-09-09T13:57:10.526Z,7144
2016-09-09T13:58:20.533Z,7072
2016-09-09T13:59:30.866Z,7048
2016-09-09T14:00:40.877Z,7008
2016-09-09T14:01:50.562Z,7004
2016-09-09T14:03:00.939Z,6864
2016-09-09T14:04:11.268Z,6844
2016-09-09T14:05:21.297Z,6780
2016-09-09T14:06:31.624Z,6692
2016-09-09T14:07:41.932Z,6696
2016-09-09T14:08:52.228Z,6764
2016-09-09T14:10:04.836Z,6708
2016-09-09T14:11:18.949Z,6736
2016-09-09T14:12:29.916Z,6700
2016-09-09T14:13:39.918Z,6640
2016-09-09T14:14:50.229Z,6596
2016-09-09T14:16:00.552Z,6544
2016-09-09T14:17:10.876Z,6532
2016-09-09T14:18:21.232Z,6524
2016-09-09T14:19:31.559Z,6524
2016-09-09T14:20:41.897Z,6496
2016-09-09T14:21:51.916Z,6412
2016-09-09T14:23:02.231Z,6360
2016-09-09T14:24:12.563Z,6364
2016-09-09T14:25:22.580Z,6216
2016-09-09T14:26:32.586Z,6260
2016-09-09T14:27:42.903Z,6252
2016-09-09T14:28:53.221Z,6244
2016-09-09T14:30:03.542Z,6220
2016-09-09T14:31:13.587Z,6164
2016-09-09T14:32:23.907Z,6100
2016-09-09T14:33:34.217Z,6088
2016-09-09T14:34:44.536Z,6052
2016-09-09T14:35:54.849Z,6092
2016-09-09T14:37:04.851Z,6124
2016-09-09T14:38:15.159Z,6112
2016-09-09T14:39:25.477Z,5988
2016-09-09T14:40:35.801Z,5964
2016-09-09T14:41:46.117Z,5956
2016-09-09T14:42:56.430Z,5944
2016-09-09T14:44:06.455Z,5864
2016-09-09T14:45:16.762Z,5684
2016-09-09T14:46:27.070Z,5628
2016-09-09T14:47:37.394Z,5584
2016-09-09T14:48:47.385Z,5520
2016-09-09T14:49:57.408Z,5460
2016-09-09T14:51:07.089Z,5404
2016-09-09T14:52:17.421Z,5328
2016-09-09T14:53:27.412Z,5232
2016-09-09T14:54:37.743Z,5216
2016-09-09T14:55:47.757Z,5144
2016-09-09T14:56:58.067Z,5224
2016-09-09T14:58:08.386Z,5256
2016-09-09T14:59:18.680Z,5220
2016-09-09T15:00:28.985Z,5000
2016-09-09T15:01:38.992Z,4892
2016-09-09T15:02:49.431Z,4848
2016-09-09T15:03:59.746Z,4816
2016-09-09T15:05:11.114Z,4816
2016-09-09T15:06:21.783Z,4844
2016-09-09T15:07:32.348Z,4832
2016-09-09T15:08:44.233Z,4800
2016-09-09T15:09:54.532Z,4724
2016-09-09T15:11:04.730Z,4676
2016-09-09T15:12:15.037Z,4576
2016-09-09T15:13:25.050Z,4404
2016-09-09T15:14:35.050Z,4412
2016-09-09T15:15:44.750Z,4432
2016-09-09T15:16:54.581Z,4428
2016-09-09T15:18:04.904Z,4404
2016-09-09T15:19:19.225Z,4516
2016-09-09T15:20:28.937Z,4532
2016-09-09T15:21:39.162Z,4440
2016-09-09T15:22:49.298Z,4376
2016-09-09T15:23:59.413Z,4352
2016-09-09T15:25:10.457Z,4316
2016-09-09T15:26:22.227Z,4264
2016-09-09T15:27:32.224Z,4216
2016-09-09T15:28:42.245Z,4220
2016-09-09T15:29:57.213Z,4252
2016-09-09T15:31:08.587Z,4032
2016-09-09T15:32:18.766Z,4164
2016-09-09T15:33:29.188Z,4132
2016-09-09T15:34:39.940Z,4028
2016-09-09T15:35:49.965Z,3868
2016-09-09T15:37:00.375Z,3872
2016-09-09T15:38:10.681Z,3876
2016-09-09T15:39:21.024Z,3864
2016-09-09T15:40:31.132Z,3856
2016-09-09T15:41:41.505Z,3832
2016-09-09T15:42:51.811Z,3760
2016-09-09T15:44:02.143Z,3516
2016-09-09T15:45:12.448Z,2912
2016-09-09T15:46:22.880Z,2468
2016-09-09T15:47:33.325Z,2520
2016-09-09T15:48:43.406Z,2472
2016-09-09T15:49:53.830Z,2940
2016-09-09T15:51:05.157Z,3092
2016-09-09T15:52:15.350Z,2828
2016-09-09T15:53:25.666Z,3112
2016-09-09T15:54:36.000Z,3128
2016-09-09T15:55:46.323Z,3088
2016-09-09T15:56:56.853Z,3036
2016-09-09T15:58:06.577Z,3000
2016-09-09T15:59:16.881Z,3000
2016-09-09T16:00:27.209Z,2984
2016-09-09T16:01:37.521Z,2964
2016-09-09T16:02:47.939Z,2944
2016-09-09T16:03:58.306Z,2936
2016-09-09T16:05:08.712Z,2904
2016-09-09T16:06:19.565Z,2884
2016-09-09T16:07:29.905Z,2852
2016-09-09T16:08:39.922Z,2804
2016-09-09T16:09:50.539Z,2760
2016-09-09T16:11:00.908Z,2708
2016-09-09T16:12:10.997Z,2620
2016-09-09T16:13:23.669Z,2544
2016-09-09T16:14:34.109Z,2500
2016-09-09T16:15:44.421Z,2440
2016-09-09T16:16:54.731Z,2392
2016-09-09T16:18:05.071Z,2340
2016-09-09T16:19:14.779Z,2292
2016-09-09T16:20:25.099Z,2244
2016-09-09T16:21:35.342Z,2188
2016-09-09T16:22:45.642Z,2124
2016-09-09T16:23:55.962Z,2068
2016-09-09T16:25:05.963Z,2016
2016-09-09T16:26:16.291Z,1964
2016-09-09T16:27:26.312Z,1916
2016-09-09T16:28:36.843Z,1872